Enter the Airport ICAO Code

Search by Airport or City

Current Weather

SBRF | Recife/Guararapes–Gilberto Freyre International Airport

Recife, Pernambuco, Brazil

Last Update 57 Minutes Ago

Partly Cloudy Sky

Temperature of 28 ºC

Light to Moderate Winds from NorthEast

Temperature

28 ºC

Dew Point Temperature

23 ºC

Relative Humidity

74.44 %

Wind Direction

NorthEast (060º, Without Significant Variations)

Wind Velocity

15 km/h (08 kt)

Gusts

None

Visibility

Greater than 10 Kilometers

Sea Level Pressure

1012 hPa (Hectopascals)

Layers of Clouds

30% to 60% of Sky Covered from 640 mts (2100 ft) Above Ground Level.

METAR SBRF 202100Z 06008KT 9999 SCT021 28/23 Q1012

Weather Forecast

SBRF | Recife/Guararapes–Gilberto Freyre International Airport

Recife, Pernambuco, Brazil

Forecast valid for the next 26 Hours

In 2 hours it is expected the begining of:

Partly Cloudy Sky

Moderate Winds from East

Maximum Temperature

30 ºC in 18 Hours

Minimum Temperature

26 ºC in 10 Hours

TAF SBRF 202127Z 2100/2124 09010KT 9999 SCT020 TN26/2108Z TX30/2116Z RMK PHI